createdAt,value
2022-12-22T00:03:01.063Z,21.33
2022-12-22T00:06:22.474Z,21.10
2022-12-22T00:09:43.895Z,20.00
2022-12-22T00:13:05.121Z,30.40
2022-12-22T00:16:27.652Z,22.40
2022-12-22T00:19:49.706Z,26.87
2022-12-22T00:23:10.968Z,21.93
2022-12-22T00:26:31.930Z,22.00
2022-12-22T00:29:58.928Z,20.83
2022-12-22T00:33:21.699Z,21.23
2022-12-22T00:36:44.600Z,22.70
2022-12-22T00:40:05.629Z,22.07
2022-12-22T00:43:26.933Z,26.03
2022-12-22T00:46:50.309Z,32.10
2022-12-22T00:50:12.292Z,21.73
2022-12-22T00:53:34.563Z,24.20
2022-12-22T00:56:55.660Z,23.57
2022-12-22T01:00:17.190Z,24.17
2022-12-22T01:03:38.252Z,26.03
2022-12-22T01:06:59.775Z,24.53
2022-12-22T01:10:22.586Z,25.80
2022-12-22T01:13:46.728Z,24.60
2022-12-22T01:17:07.784Z,22.87
2022-12-22T01:20:30.865Z,21.83
2022-12-22T01:23:52.024Z,23.63
2022-12-22T01:27:14.896Z,24.43
2022-12-22T01:30:35.718Z,25.17
2022-12-22T01:33:57.296Z,24.50
2022-12-22T01:37:18.518Z,22.10
2022-12-22T01:40:42.175Z,23.27
2022-12-22T01:44:04.737Z,22.83
2022-12-22T01:47:50.588Z,23.93
2022-12-22T01:51:14.297Z,22.17
2022-12-22T01:54:35.858Z,23.00
2022-12-22T01:57:56.828Z,23.20
2022-12-22T02:01:20.336Z,21.33
2022-12-22T02:04:45.392Z,22.17
2022-12-22T02:08:21.562Z,23.37
2022-12-22T02:11:51.552Z,22.43
2022-12-22T02:15:23.113Z,22.80
2022-12-22T02:18:50.864Z,22.27
2022-12-22T02:22:22.993Z,21.23
2022-12-22T02:25:49.353Z,23.13
2022-12-22T02:29:12.490Z,22.93
2022-12-22T02:32:33.863Z,22.10
2022-12-22T02:36:08.169Z,22.33
2022-12-22T02:39:39.321Z,21.57
2022-12-22T02:43:09.206Z,21.83
2022-12-22T02:46:40.508Z,21.90
2022-12-22T02:50:12.057Z,20.97
2022-12-22T02:53:34.846Z,19.37
2022-12-22T02:56:56.121Z,22.50
2022-12-22T03:00:17.369Z,20.27
2022-12-22T03:03:40.054Z,20.77
2022-12-22T03:07:01.138Z,18.27
2022-12-22T03:10:23.399Z,20.80
2022-12-22T03:13:45.523Z,18.87
2022-12-22T03:17:06.721Z,19.70
2022-12-22T03:20:29.472Z,18.47
2022-12-22T03:23:50.146Z,18.60
2022-12-22T03:26:54.306Z,20.00
2022-12-22T03:29:59.063Z,20.67
2022-12-22T03:33:11.735Z,19.40
2022-12-22T03:36:16.533Z,20.23
2022-12-22T03:39:25.571Z,21.23
2022-12-22T03:42:43.148Z,19.93
2022-12-22T03:46:04.351Z,20.27
2022-12-22T03:49:13.956Z,20.77
2022-12-22T03:52:18.814Z,22.77
2022-12-22T03:55:22.218Z,20.67
2022-12-22T03:58:25.980Z,20.17
2022-12-22T04:01:29.490Z,21.63
2022-12-22T04:04:33.365Z,22.20
2022-12-22T04:07:38.592Z,19.40
2022-12-22T04:11:01.498Z,22.20
2022-12-22T04:14:05.116Z,23.07
2022-12-22T04:17:09.739Z,22.00
2022-12-22T04:20:13.567Z,19.60
2022-12-22T04:23:17.890Z,20.97
2022-12-22T04:26:22.537Z,19.10
2022-12-22T04:29:25.527Z,18.97
2022-12-22T04:32:28.571Z,22.20
2022-12-22T04:35:31.554Z,24.20
2022-12-22T04:38:36.564Z,23.93
2022-12-22T04:41:39.554Z,24.00
2022-12-22T04:44:42.565Z,19.67
2022-12-22T04:47:45.599Z,23.13
2022-12-22T04:50:51.823Z,21.10
2022-12-22T04:53:56.149Z,21.87
2022-12-22T04:56:59.139Z,19.37
2022-12-22T05:00:02.520Z,21.90
2022-12-22T05:03:05.693Z,23.57
2022-12-22T05:06:09.812Z,23.63
2022-12-22T05:09:14.620Z,21.47
2022-12-22T05:12:35.761Z,21.93
2022-12-22T05:15:39.100Z,22.73
2022-12-22T05:18:46.145Z,23.80
2022-12-22T05:21:49.186Z,23.70
2022-12-22T05:24:53.496Z,24.83
2022-12-22T05:27:56.509Z,24.03
2022-12-22T05:31:05.329Z,22.97
2022-12-22T05:34:08.414Z,22.57
2022-12-22T05:37:11.421Z,25.33
2022-12-22T05:40:15.805Z,24.60
2022-12-22T05:43:19.109Z,28.17
2022-12-22T05:46:22.583Z,26.73
2022-12-22T05:49:25.968Z,27.00
2022-12-22T05:52:29.956Z,26.37
2022-12-22T05:55:35.145Z,26.50
2022-12-22T05:58:40.001Z,25.27
2022-12-22T06:01:43.234Z,24.00
2022-12-22T06:04:46.330Z,24.33
2022-12-22T06:07:49.380Z,26.03
2022-12-22T06:10:55.871Z,27.20
2022-12-22T06:13:58.827Z,27.00
2022-12-22T06:17:02.220Z,25.40
2022-12-22T06:20:07.251Z,24.57
2022-12-22T06:23:10.289Z,27.40
2022-12-22T06:26:14.641Z,24.80
2022-12-22T06:29:17.805Z,26.40
2022-12-22T06:32:20.970Z,29.23
2022-12-22T06:35:24.131Z,26.13
2022-12-22T06:38:28.362Z,27.47
2022-12-22T06:41:50.729Z,26.07
2022-12-22T06:44:55.012Z,26.33
2022-12-22T06:47:58.211Z,24.43
2022-12-22T06:51:02.025Z,26.10
2022-12-22T06:54:05.670Z,27.80
2022-12-22T06:57:10.120Z,25.63
2022-12-22T07:00:14.608Z,25.93
2022-12-22T07:03:17.804Z,26.57
2022-12-22T07:06:21.378Z,26.83
2022-12-22T07:09:24.492Z,25.90
2022-12-22T07:12:28.901Z,24.67
2022-12-22T07:15:31.862Z,25.00
2022-12-22T07:18:37.157Z,27.00
2022-12-22T07:21:42.809Z,24.87
2022-12-22T07:24:45.931Z,24.67
2022-12-22T07:27:50.277Z,25.10
2022-12-22T07:30:55.359Z,24.47
2022-12-22T07:33:58.439Z,26.37
2022-12-22T07:37:01.673Z,23.83
2022-12-22T07:40:05.411Z,24.30
2022-12-22T07:43:12.753Z,25.57
2022-12-22T07:46:15.767Z,24.40
2022-12-22T07:49:47.625Z,26.33
2022-12-22T07:52:50.744Z,28.43
2022-12-22T07:55:53.727Z,26.47
2022-12-22T07:59:39.816Z,25.70
2022-12-22T08:02:46.541Z,26.67
2022-12-22T08:05:50.605Z,25.67
2022-12-22T08:08:58.177Z,25.87
2022-12-22T08:12:01.684Z,24.40
2022-12-22T08:15:09.841Z,23.70
2022-12-22T08:18:13.726Z,24.33
2022-12-22T08:21:17.261Z,24.27
2022-12-22T08:24:20.287Z,23.97
2022-12-22T08:27:29.012Z,22.37
2022-12-22T08:30:34.522Z,22.27
2022-12-22T08:33:38.200Z,24.50
2022-12-22T08:36:46.078Z,23.33
2022-12-22T08:39:57.297Z,21.77
2022-12-22T08:43:05.286Z,21.63
2022-12-22T08:46:09.790Z,23.27
2022-12-22T08:49:12.952Z,23.40
2022-12-22T08:52:18.781Z,21.90
2022-12-22T08:55:22.227Z,22.30
2022-12-22T08:58:25.436Z,23.53
2022-12-22T09:01:29.941Z,21.70
2022-12-22T09:04:34.677Z,24.70
2022-12-22T09:07:37.699Z,25.27
2022-12-22T09:10:44.209Z,24.07
2022-12-22T09:13:47.401Z,23.93
2022-12-22T09:16:52.116Z,21.07
2022-12-22T09:19:55.186Z,26.10
2022-12-22T09:22:58.231Z,21.27
2022-12-22T09:26:01.248Z,21.97
2022-12-22T09:29:05.291Z,21.37
2022-12-22T09:32:09.742Z,24.30
2022-12-22T09:35:12.809Z,24.27
2022-12-22T09:38:15.792Z,20.80
2022-12-22T09:41:21.606Z,21.57
2022-12-22T09:44:28.600Z,20.83
2022-12-22T09:47:37.906Z,20.63
2022-12-22T09:50:42.968Z,20.87
2022-12-22T09:53:51.605Z,21.27
2022-12-22T09:56:54.670Z,21.83
2022-12-22T09:59:59.287Z,20.97
2022-12-22T10:03:14.317Z,20.57
2022-12-22T10:06:21.665Z,22.10
2022-12-22T10:09:48.708Z,19.47
2022-12-22T10:12:51.409Z,21.30
2022-12-22T10:15:55.807Z,22.80
2022-12-22T10:19:07.816Z,20.53
2022-12-22T10:22:30.900Z,21.23
2022-12-22T10:26:25.864Z,21.20
2022-12-22T10:29:06.851Z,26.17
2022-12-22T10:32:15.213Z,22.50
2022-12-22T10:35:19.613Z,24.13
2022-12-22T10:38:26.783Z,25.30
2022-12-22T10:41:34.096Z,27.20
2022-12-22T10:44:39.698Z,22.37
2022-12-22T10:47:49.246Z,28.40
2022-12-22T10:50:54.882Z,20.73
2022-12-22T10:53:58.008Z,20.83
2022-12-22T10:57:08.053Z,20.40
2022-12-22T11:00:31.226Z,21.70
2022-12-22T11:03:42.023Z,24.87
2022-12-22T11:06:55.765Z,20.27
2022-12-22T11:10:03.296Z,22.53
2022-12-22T11:13:30.604Z,19.17
2022-12-22T11:16:49.053Z,18.77
2022-12-22T11:20:07.188Z,19.57
2022-12-22T11:23:20.651Z,19.00
2022-12-22T11:26:34.616Z,18.57
2022-12-22T11:30:04.605Z,19.13
2022-12-22T11:33:25.036Z,16.73
2022-12-22T11:36:39.432Z,17.73
2022-12-22T11:39:59.085Z,18.40
2022-12-22T11:43:20.731Z,18.53
2022-12-22T11:46:31.711Z,18.70
2022-12-22T11:50:57.471Z,16.87
2022-12-22T11:54:11.568Z,16.67
2022-12-22T11:57:29.465Z,14.93
2022-12-22T12:01:12.218Z,16.20
2022-12-22T12:04:24.665Z,17.23
2022-12-22T12:07:31.141Z,17.60
2022-12-22T12:10:42.933Z,15.00
2022-12-22T12:13:56.102Z,18.00
2022-12-22T12:17:03.629Z,15.60
2022-12-22T12:20:42.360Z,17.17
2022-12-22T12:24:09.978Z,17.30
2022-12-22T12:27:30.350Z,15.80
2022-12-22T12:30:44.635Z,16.00
2022-12-22T12:33:52.572Z,18.83
2022-12-22T12:37:03.474Z,17.83
2022-12-22T12:40:30.054Z,16.37
2022-12-22T12:43:33.583Z,17.60
2022-12-22T12:47:03.205Z,16.77
2022-12-22T12:50:34.992Z,16.03
2022-12-22T12:54:23.261Z,15.27
2022-12-22T12:57:46.834Z,16.07
2022-12-22T13:00:55.480Z,15.70
2022-12-22T13:04:05.959Z,15.87
2022-12-22T13:07:12.890Z,16.13
2022-12-22T13:10:31.727Z,16.73
2022-12-22T13:13:52.442Z,16.90
2022-12-22T13:17:41.729Z,17.17
2022-12-22T13:20:46.752Z,17.00
2022-12-22T13:24:24.656Z,15.67
2022-12-22T13:27:24.309Z,17.40
2022-12-22T13:30:31.459Z,15.50
2022-12-22T13:33:40.495Z,15.67
2022-12-22T13:36:45.106Z,16.70
2022-12-22T13:40:15.397Z,16.63
2022-12-22T13:43:20.840Z,16.93
2022-12-22T13:46:24.279Z,15.63
2022-12-22T13:49:59.201Z,15.70
2022-12-22T13:52:53.808Z,17.07
2022-12-22T13:55:58.526Z,16.70
2022-12-22T13:59:03.089Z,15.27
2022-12-22T14:02:19.887Z,16.10
2022-12-22T14:05:33.053Z,16.17
2022-12-22T14:09:00.331Z,16.43
2022-12-22T14:12:14.577Z,16.50
2022-12-22T14:15:21.045Z,16.30
2022-12-22T14:18:27.535Z,16.77
2022-12-22T14:21:30.681Z,15.27
2022-12-22T14:24:42.042Z,16.80
2022-12-22T14:27:48.835Z,17.00
2022-12-22T14:30:54.865Z,15.37
2022-12-22T14:34:05.253Z,15.60
2022-12-22T14:37:11.514Z,17.33
2022-12-22T14:40:33.428Z,18.07
2022-12-22T14:43:36.573Z,15.93
2022-12-22T14:46:39.731Z,14.90
2022-12-22T14:49:49.053Z,15.83
2022-12-22T14:52:54.840Z,14.43
2022-12-22T14:55:59.600Z,14.47
2022-12-22T14:59:12.710Z,13.23
2022-12-22T15:02:25.411Z,13.03
2022-12-22T15:05:32.967Z,14.03
2022-12-22T15:08:40.688Z,13.57
2022-12-22T15:11:47.802Z,12.07
2022-12-22T15:14:50.817Z,12.30
2022-12-22T15:17:54.972Z,10.73
2022-12-22T15:20:58.978Z,10.90
2022-12-22T15:24:02.133Z,10.23
2022-12-22T15:27:06.503Z,10.50
2022-12-22T15:30:11.320Z,11.13
2022-12-22T15:33:17.895Z,10.30
2022-12-22T15:36:20.918Z,10.33
2022-12-22T15:39:24.621Z,11.07
2022-12-22T15:42:29.037Z,12.00
2022-12-22T15:45:32.133Z,11.20
2022-12-22T15:48:37.290Z,11.70
2022-12-22T15:51:40.369Z,12.87
2022-12-22T15:54:43.697Z,13.50
2022-12-22T15:57:48.610Z,14.30
2022-12-22T16:00:51.969Z,15.37
2022-12-22T16:03:55.932Z,16.07
2022-12-22T16:07:00.509Z,16.70
2022-12-22T16:10:09.673Z,16.27
2022-12-22T16:13:17.314Z,16.70
2022-12-22T16:16:20.564Z,18.70
2022-12-22T16:19:30.711Z,17.67
2022-12-22T16:22:37.313Z,18.73
2022-12-22T16:25:43.811Z,19.73
2022-12-22T16:28:48.289Z,17.93
2022-12-22T16:31:51.498Z,19.10
2022-12-22T16:34:55.783Z,19.57
2022-12-22T16:38:01.033Z,19.27
2022-12-22T16:41:04.278Z,17.67
2022-12-22T16:47:36.366Z,20.03
2022-12-22T16:50:39.578Z,18.97
2022-12-22T16:53:42.622Z,21.10
2022-12-22T16:56:46.997Z,21.73
2022-12-22T16:59:51.347Z,19.67
2022-12-22T17:02:59.615Z,19.47
2022-12-22T17:06:05.089Z,19.50
2022-12-22T17:09:15.937Z,19.07
2022-12-22T17:12:22.443Z,19.77
2022-12-22T17:15:26.751Z,19.73
2022-12-22T17:18:31.993Z,20.80
2022-12-22T17:21:35.023Z,20.63
2022-12-22T17:24:38.700Z,20.30
2022-12-22T17:27:42.129Z,22.40
2022-12-22T17:30:47.613Z,21.37
2022-12-22T17:33:53.796Z,23.10
2022-12-22T17:36:58.901Z,21.73
2022-12-22T17:40:03.038Z,22.50
2022-12-22T17:43:10.661Z,24.93
2022-12-22T17:46:17.730Z,23.93
2022-12-22T17:49:22.416Z,24.40
2022-12-22T17:52:28.272Z,22.13
2022-12-22T17:56:07.733Z,21.53
2022-12-22T17:59:02.994Z,23.83
2022-12-22T18:02:09.982Z,25.93
2022-12-22T18:05:14.792Z,24.53
2022-12-22T18:08:22.433Z,23.97
2022-12-22T18:11:26.189Z,24.67
2022-12-22T18:14:29.351Z,25.20
2022-12-22T18:17:36.369Z,25.80
2022-12-22T18:20:40.157Z,25.50
2022-12-22T18:23:49.887Z,24.23
2022-12-22T18:26:54.832Z,21.97
2022-12-22T18:29:59.735Z,21.90
2022-12-22T18:33:07.069Z,22.13
2022-12-22T18:36:19.390Z,22.13
2022-12-22T18:39:33.368Z,20.57
2022-12-22T18:42:37.696Z,20.97
2022-12-22T18:45:45.210Z,21.63
2022-12-22T18:48:52.256Z,21.93
2022-12-22T18:51:55.277Z,23.50
2022-12-22T18:55:03.690Z,22.80
2022-12-22T18:58:28.609Z,21.90
2022-12-22T19:01:40.224Z,22.13
2022-12-22T19:04:52.875Z,21.23
2022-12-22T19:08:18.517Z,21.60
2022-12-22T19:11:49.153Z,20.00
2022-12-22T19:15:04.697Z,19.97
2022-12-22T19:18:26.239Z,21.00
2022-12-22T19:21:36.920Z,20.37
2022-12-22T19:24:41.563Z,19.30
2022-12-22T19:27:45.995Z,20.73
2022-12-22T19:30:49.749Z,21.07
2022-12-22T19:33:54.101Z,19.10
2022-12-22T19:36:59.139Z,19.43
2022-12-22T19:40:02.328Z,18.50
2022-12-22T19:43:06.481Z,21.77
2022-12-22T19:46:10.747Z,22.03
2022-12-22T19:49:17.468Z,22.27
2022-12-22T19:52:22.014Z,20.70
2022-12-22T19:55:29.046Z,22.27
2022-12-22T19:58:38.579Z,22.03
2022-12-22T20:01:42.003Z,20.30
2022-12-22T20:04:45.387Z,22.00
2022-12-22T20:07:50.264Z,21.93
2022-12-22T20:10:58.431Z,21.90
2022-12-22T20:14:02.577Z,23.53
2022-12-22T20:17:05.751Z,22.00
2022-12-22T20:20:16.373Z,24.30
2022-12-22T20:23:23.577Z,22.27
2022-12-22T20:26:28.764Z,22.20
2022-12-22T20:29:31.911Z,21.97
2022-12-22T20:32:35.168Z,23.93
2022-12-22T20:35:39.707Z,24.27
2022-12-22T20:38:45.787Z,23.37
2022-12-22T20:41:53.547Z,23.03
2022-12-22T20:45:04.095Z,22.03
2022-12-22T20:48:07.780Z,24.07
2022-12-22T20:51:15.219Z,25.30
2022-12-22T20:54:19.624Z,22.87
2022-12-22T20:57:24.064Z,24.10
2022-12-22T21:00:29.341Z,24.10
2022-12-22T21:03:32.377Z,21.60
2022-12-22T21:06:39.092Z,22.97
2022-12-22T21:09:44.026Z,24.10
2022-12-22T21:12:47.351Z,24.17
2022-12-22T21:15:55.880Z,22.63
2022-12-22T21:18:59.672Z,21.70
2022-12-22T21:22:03.116Z,23.87
2022-12-22T21:25:09.531Z,24.27
2022-12-22T21:28:22.552Z,24.90
2022-12-22T21:31:25.792Z,24.13
2022-12-22T21:34:29.354Z,22.50
2022-12-22T21:37:35.767Z,24.17
2022-12-22T21:40:40.638Z,22.63
2022-12-22T21:43:44.067Z,24.63
2022-12-22T21:46:48.323Z,26.07
2022-12-22T21:49:51.867Z,23.80
2022-12-22T21:52:55.158Z,23.83
2022-12-22T21:55:59.547Z,22.77
2022-12-22T21:59:15.690Z,23.30
2022-12-22T22:02:20.514Z,22.73
2022-12-22T22:05:28.849Z,23.07
2022-12-22T22:08:32.390Z,21.90
2022-12-22T22:11:57.866Z,24.57
2022-12-22T22:15:02.184Z,21.03
2022-12-22T22:18:07.696Z,23.50
2022-12-22T22:21:14.999Z,21.97
2022-12-22T22:24:18.506Z,23.33
2022-12-22T22:27:23.094Z,23.83
2022-12-22T22:30:28.217Z,22.23
2022-12-22T22:33:31.652Z,23.30
2022-12-22T22:36:35.129Z,22.57
2022-12-22T22:39:38.494Z,22.83
2022-12-22T22:42:43.547Z,21.97
2022-12-22T22:45:47.931Z,20.83
2022-12-22T22:48:51.554Z,20.87
2022-12-22T22:51:57.648Z,22.70
2022-12-22T22:55:01.185Z,21.23
2022-12-22T22:58:06.378Z,19.83
2022-12-22T23:01:12.385Z,22.27
2022-12-22T23:04:16.004Z,21.07
2022-12-22T23:07:19.548Z,20.43
2022-12-22T23:10:23.254Z,21.37
2022-12-22T23:13:28.814Z,21.40
2022-12-22T23:16:37.716Z,24.30
2022-12-22T23:19:42.000Z,21.83
2022-12-22T23:22:45.735Z,20.67
2022-12-22T23:25:51.849Z,22.47
2022-12-22T23:29:02.692Z,23.47
2022-12-22T23:32:08.013Z,21.67
2022-12-22T23:35:11.764Z,21.60
2022-12-22T23:38:17.246Z,21.07
2022-12-22T23:41:21.376Z,22.10
2022-12-22T23:44:26.746Z,21.83
2022-12-22T23:47:30.879Z,20.67
2022-12-22T23:50:34.406Z,19.97
2022-12-22T23:53:39.669Z,20.80
2022-12-22T23:56:43.354Z,21.97
2022-12-22T23:59:51.419Z,20.17
